M I D A S
Marine Information and Data Acquisition System
Tripno 394 of the Zeeleeuw from 2002-11-28 07:58:29 to 2002-11-28 15:38:08
Back to CruiseResearch ActivitiesStationsMapUnderway DataData graphs

EquipmentUnitsComment
TimeDGPSUTC
LatitudeDGPSDM.mWGS84
LongitudeDGPSDM.mWGS84
HeadingGyrodeg 
SOGDGPSknotsSpeed over ground
COGDGPSdegCourse over ground
DepthEcho soundermeters200 kHz
Missing or incorrect values are displayed as -999
Navigation data collected by the RV Zeeleeuw from 2002-11-28 07:58:29 to 2002-11-28 15:38:08
Time Latitude Longitude Heading SOG COG Depth
2002-11-28 07:59:34 51°13.68 2°55.836 101 3.3 284 -999
2002-11-28 08:00:34 51°13.684 2°55.768 83.3 2 268.4 14.2
2002-11-28 08:01:35 51°13.689 2°55.751 47.8 0.8 17.4 14.6
2002-11-28 08:02:34 51°13.727 2°55.743 338 3.7 334.5 11.9
2002-11-28 08:03:35 51°13.807 2°55.661 334.7 6.6 328 11.3
2002-11-28 08:04:34 51°13.917 2°55.583 342 7.2 337.1 -999
2002-11-28 08:05:34 51°14.016 2°55.515 340.8 5.9 335.9 -999
2002-11-28 08:06:35 51°14.097 2°55.449 339.8 5.1 333.4 9.8
2002-11-28 08:07:35 51°14.168 2°55.391 337.7 4.7 332.4 -999
2002-11-28 08:08:35 51°14.234 2°55.325 326.7 4.7 322.9 11.1
2002-11-28 08:09:35 51°14.299 2°55.216 313 7.4 307.6 11
2002-11-28 08:10:35 51°14.407 2°54.996 316.5 11.7 310 -999
2002-11-28 08:11:35 51°14.552 2°54.766 320.2 12.4 317.2 10.4
2002-11-28 08:12:34 51°14.704 2°54.549 326 12.8 321.6 17.8
2002-11-28 08:13:34 51°14.899 2°54.387 335.8 13.2 332.3 9.6
2002-11-28 08:14:34 51°15.094 2°54.215 334.2 13.7 329.9 9.7
2002-11-28 08:15:34 51°15.296 2°54.03 334.8 14.1 330.3 -999
2002-11-28 08:16:34 51°15.501 2°53.843 335 14.2 330.3 11.1
2002-11-28 08:17:34 51°15.707 2°53.657 335 14.2 330.6 11.6
2002-11-28 08:18:34 51°15.912 2°53.473 334.8 14.2 330.7 12.7
2002-11-28 08:19:34 51°16.117 2°53.291 335 14.1 330.9 12.9
2002-11-28 08:20:34 51°16.322 2°53.109 334.7 14.2 331 13.5
2002-11-28 08:21:32 51°16.524 2°52.944 336.7 14.2 332.8 -999
2002-11-28 08:22:34 51°16.741 2°52.769 338.8 14.1 334.4 11.3
2002-11-28 08:23:35 51°16.963 2°52.621 343.5 14.3 338.8 11.1
2002-11-28 08:24:34 51°17.182 2°52.49 344 14.3 339.5 10.1
2002-11-28 08:25:34 51°17.407 2°52.36 348 14.4 342.9 10.7
2002-11-28 08:26:34 51°17.64 2°52.266 353 14.5 347.5 9.9
2002-11-28 08:27:34 51°17.876 2°52.192 355.3 14.5 350.1 -999
2002-11-28 08:28:34 51°18.116 2°52.137 359.2 14.6 354 11.4
2002-11-28 08:29:34 51°18.357 2°52.093 359.2 14.6 353.4 12.3
2002-11-28 08:30:34 51°18.599 2°52.05 358.5 14.6 353.6 13
2002-11-28 08:31:34 51°18.839 2°52.003 358.3 14.5 352.5 14.3
2002-11-28 08:32:35 51°19.084 2°51.961 359 14.6 354.4 15.2
2002-11-28 08:33:34 51°19.321 2°51.93 1.8 14.6 356.3 16.4
2002-11-28 08:34:34 51°19.563 2°51.908 2 14.5 356.8 16.7
2002-11-28 08:35:34 51°19.804 2°51.884 2.2 14.5 356.8 16.6
2002-11-28 08:36:34 51°20.047 2°51.877 5.8 14.6 0.4 16
2002-11-28 08:37:34 51°20.29 2°51.874 4.7 14.6 359.5 14.4
2002-11-28 08:38:34 51°20.531 2°51.869 5.2 14.5 359.6 14.4
2002-11-28 08:39:34 51°20.774 2°51.867 4.5 14.6 358.9 15.3
2002-11-28 08:40:35 51°21.021 2°51.864 4.7 14.6 359.8 17.8
2002-11-28 08:41:34 51°21.261 2°51.865 4.8 14.7 0.6 19.6
2002-11-28 08:42:34 51°21.506 2°51.869 5.2 14.7 1 22.8
2002-11-28 08:43:34 51°21.751 2°51.874 4.5 14.9 1.2 24.7
2002-11-28 08:44:35 51°21.997 2°51.947 26 14.9 20.6 24.8
2002-11-28 08:45:34 51°22.198 2°52.159 53.7 14.8 47.1 24.6
2002-11-28 08:46:34 51°22.335 2°52.489 65.8 15.1 58.7 24.1
2002-11-28 08:47:34 51°22.47 2°52.82 63.5 14.9 55.6 23.4
2002-11-28 08:48:34 51°22.615 2°53.143 62.3 14.7 55.1 23.1
2002-11-28 08:49:34 51°22.758 2°53.466 60.2 14.9 53.8 22.7
2002-11-28 08:50:35 51°22.91 2°53.792 60.5 14.8 53.8 22.6
2002-11-28 08:51:35 51°23.063 2°54.111 59.8 14.9 52.9 22.4
2002-11-28 08:52:35 51°23.214 2°54.424 58.5 14.8 50.9 20.7
2002-11-28 08:53:34 51°23.361 2°54.734 61.2 14.8 53.7 20.2
2002-11-28 08:54:34 51°23.51 2°55.046 60.5 14.4 52.7 20
2002-11-28 08:55:34 51°23.672 2°55.344 52.3 14.7 45.7 20.5
2002-11-28 08:56:35 51°23.872 2°55.583 35 14.9 29.1 19.3
2002-11-28 08:57:34 51°24.103 2°55.694 16.3 14.7 11.2 22.1
2002-11-28 08:58:34 51°24.346 2°55.738 11.3 14.7 6.3 24.1
2002-11-28 08:59:34 51°24.59 2°55.775 9.8 14.7 5.2 24.3
2002-11-28 09:00:34 51°24.835 2°55.803 6.7 14.7 2.4 24.5
2002-11-28 09:01:34 51°25.08 2°55.82 6 14.9 2.2 22.2
2002-11-28 09:02:34 51°25.325 2°55.844 7.2 14.7 2.9 17.5
2002-11-28 09:03:34 51°25.571 2°55.865 7 14.9 3.1 16.8
2002-11-28 09:04:35 51°25.822 2°55.889 7 15 2.8 18.6
2002-11-28 09:05:34 51°26.062 2°55.914 8.3 14.8 4.3 18.9
2002-11-28 09:06:34 51°26.307 2°55.936 8 14.7 3.9 21.2
2002-11-28 09:07:34 51°26.549 2°55.963 7.3 14.6 3.6 24.5
2002-11-28 09:08:34 51°26.793 2°55.986 8.2 14.7 3.8 27.1
2002-11-28 09:09:32 51°27.028 2°56.017 8.2 14.8 4.4 27.6
2002-11-28 09:10:34 51°27.281 2°56.048 7.5 14.9 4.1 29.1
2002-11-28 09:11:34 51°27.486 2°56.053 357 10 354.8 30
2002-11-28 09:12:35 51°27.553 2°55.947 262.2 4.5 272.9 29.1
2002-11-28 09:13:33 51°27.51 2°55.907 174 3.9 163 29.4
2002-11-28 09:14:35 51°27.425 2°55.956 174.8 5.8 163.9 29.2
2002-11-28 09:15:34 51°27.361 2°56.078 129.7 6.4 114.4 29.2
2002-11-28 09:16:34 51°27.362 2°56.137 127 1.5 34.6 29.1
2002-11-28 09:17:35 51°27.384 2°56.164 110.3 1.7 39.8 29.5
2002-11-28 09:18:35 51°27.405 2°56.194 98 1.7 41.3 29.6
2002-11-28 09:19:35 51°27.428 2°56.225 98.8 1.8 41.8 30
2002-11-28 09:20:35 51°27.448 2°56.257 105.7 1.7 44.6 30.1
2002-11-28 09:21:32 51°27.467 2°56.289 111.7 1.7 46.6 30.1
2002-11-28 09:22:34 51°27.487 2°56.323 112 1.7 46.6 29.5
2002-11-28 09:23:32 51°27.505 2°56.355 114.2 1.6 47.6 28.6
2002-11-28 09:24:35 51°27.525 2°56.389 113.7 1.7 46.8 28.3
2002-11-28 09:25:35 51°27.534 2°56.48 102.3 6.4 88.3 27.9
2002-11-28 09:26:35 51°27.646 2°56.745 50.5 14.4 44.7 26.4
2002-11-28 09:27:35 51°27.827 2°57.01 46.8 14.8 40.8 29.6
2002-11-28 09:28:33 51°27.992 2°57.273 51 14.6 44.8 29
2002-11-28 09:29:35 51°28.172 2°57.556 49.7 14.8 44.3 29.3
2002-11-28 09:30:35 51°28.345 2°57.833 51.8 14.6 46 30
2002-11-28 09:31:35 51°28.52 2°58.105 48.3 14.8 43.1 30.7
2002-11-28 09:32:35 51°28.701 2°58.376 48.3 14.7 42.8 30.8
2002-11-28 09:33:35 51°28.883 2°58.643 47 14.9 41.6 29.6
2002-11-28 09:34:35 51°29.07 2°58.903 47 14.8 41.5 28.6
2002-11-28 09:35:35 51°29.277 2°59.096 15.5 14.5 12.6 29
2002-11-28 09:36:35 51°29.518 2°59.107 2.8 14.6 359.3 27.3
2002-11-28 09:37:35 51°29.762 2°59.086 359.5 14.8 355.8 26.5
2002-11-28 09:38:35 51°30.006 2°59.059 359.8 14.6 356.2 26
2002-11-28 09:39:35 51°30.25 2°59.039 1.2 14.7 357.6 25
2002-11-28 09:40:35 51°30.493 2°59.013 359.5 14.7 355.9 26.6
2002-11-28 09:41:35 51°30.734 2°58.995 1.5 14.4 357.8 27.7
2002-11-28 09:42:33 51°30.936 2°59.006 24 9.6 18.1 27.8
2002-11-28 09:43:35 51°31.033 2°59.169 64.5 7.7 58.1 27.6
2002-11-28 09:44:35 51°31.141 2°59.243 359.3 7.1 359.5 27.6
2002-11-28 09:45:35 51°31.228 2°59.151 296.2 6.1 303.5 27.8
2002-11-28 09:46:35 51°31.228 2°59.016 239.3 4.8 245.2 28.2
2002-11-28 09:47:35 51°31.161 2°58.972 180.7 4.8 174.2 28
2002-11-28 09:48:35 51°31.073 2°59.005 179.3 5.7 168.7 27.8
2002-11-28 09:49:35 51°30.978 2°59.016 186 5.9 177.9 27.7
2002-11-28 09:50:35 51°30.882 2°58.992 195.3 5.9 189.9 27.9
2002-11-28 09:51:35 51°30.804 2°58.992 187.7 3.6 175.5 27.5
2002-11-28 09:52:35 51°30.77 2°59 194.3 1 169.7 27.8
2002-11-28 09:53:35 51°30.78 2°59.011 203.2 0.9 30.5 27.6
2002-11-28 09:54:35 51°30.798 2°59.024 207.5 1.2 20.9 27.5
2002-11-28 09:55:35 51°30.807 2°59.023 231.5 0.6 292.3 27.7
2002-11-28 09:56:35 51°30.818 2°58.978 276.3 2.6 293.8 27.5
2002-11-28 09:57:35 51°30.853 2°58.908 306.7 3.8 315.8 27.6
2002-11-28 09:58:35 51°30.97 2°58.832 357.5 11.7 352.4 27.1
2002-11-28 09:59:35 51°31.17 2°58.696 313.5 13.3 312.3 28.5
2002-11-28 10:00:35 51°31.181 2°58.364 257.3 13 256.5 29.1
2002-11-28 10:01:35 51°31.142 2°58.017 263.8 13.3 263.1 29.7
2002-11-28 10:02:35 51°31.118 2°57.665 264.5 13.2 263.7 30.1
2002-11-28 10:03:35 51°31.094 2°57.313 264.8 13.3 263.7 30.8
2002-11-28 10:04:35 51°31.068 2°56.963 264.2 13.3 263.4 31.1
2002-11-28 10:05:35 51°31.044 2°56.611 265 13.3 264.1 33
2002-11-28 10:06:35 51°31.017 2°56.263 264.2 13.2 263.1 33.6
2002-11-28 10:07:35 51°31.015 2°55.908 274.7 13.3 273 31.8
2002-11-28 10:08:35 51°31.076 2°55.566 299.8 13.7 298.2 17.1
2002-11-28 10:09:35 51°31.236 2°55.294 320.3 14.2 317.5 17.8
2002-11-28 10:10:35 51°31.446 2°55.129 352.5 14.5 346.8 16.1
2002-11-28 10:11:35 51°31.682 2°55.205 31.3 14.7 23.2 18.6
2002-11-28 10:12:35 51°31.887 2°55.407 40.7 14.6 33.8 20.1
2002-11-28 10:13:35 51°32.093 2°55.612 36.8 14.3 29.6 21.1
2002-11-28 10:14:33 51°32.297 2°55.805 37.2 14.6 30.1 21.3
2002-11-28 10:15:35 51°32.517 2°55.989 34 14.4 27.1 22
2002-11-28 10:16:35 51°32.741 2°56.146 31.3 14.6 24.6 22.4
2002-11-28 10:17:35 51°32.962 2°56.308 31 14.6 24 22.8
2002-11-28 10:18:35 51°33.182 2°56.472 33.8 14.6 27.4 26.4
2002-11-28 10:19:35 51°33.407 2°56.621 25.7 14.4 19.4 25.5
2002-11-28 10:20:35 51°33.631 2°56.771 29.3 14.8 22.9 28.2
2002-11-28 10:21:35 51°33.851 2°56.919 31.2 14.1 24.2 28.4
2002-11-28 10:22:35 51°34.072 2°57.063 29.7 14.6 23.8 29.9
2002-11-28 10:23:35 51°34.296 2°57.211 29.2 14.3 22.4 30.3
2002-11-28 10:24:35 51°34.521 2°57.302 1 13.9 355.4 28.1
2002-11-28 10:25:35 51°34.655 2°57.05 280.5 13 279.2 30.6
2002-11-28 10:26:35 51°34.55 2°56.773 226.2 12.8 223.9 31.5
2002-11-28 10:27:35 51°34.421 2°56.492 235.7 13.2 233.3 31.4
2002-11-28 10:28:35 51°34.3 2°56.199 239.8 13.1 237.9 31.5
2002-11-28 10:29:35 51°34.181 2°55.905 239.5 13.1 237 30.4
2002-11-28 10:30:35 51°34.068 2°55.604 241.7 13.2 239.6 29.8
2002-11-28 10:31:35 51°33.956 2°55.3 241.7 13.2 239.1 28.6
2002-11-28 10:32:35 51°33.845 2°54.996 242 13.2 240.1 28.9
2002-11-28 10:33:35 51°33.733 2°54.694 241.7 13.2 239.5 28.6
2002-11-28 10:34:35 51°33.621 2°54.389 241.7 13.3 239.1 28.2
2002-11-28 10:35:35 51°33.51 2°54.085 241.3 13.2 239.1 27.5
2002-11-28 10:36:35 51°33.398 2°53.781 242.2 13.2 240 28.8
2002-11-28 10:37:35 51°33.286 2°53.478 241.5 13.2 239.7 28.3
2002-11-28 10:38:35 51°33.176 2°53.172 241.8 13.3 239.9 27.1
2002-11-28 10:39:35 51°33.065 2°52.865 242 13.3 240.2 29.3
2002-11-28 10:40:35 51°32.954 2°52.56 241.8 13.2 240.2 28.9
2002-11-28 10:41:35 51°32.845 2°52.254 242.2 13.3 240.2 28.3
2002-11-28 10:42:35 51°32.734 2°51.948 242 13.3 240.2 29.9
2002-11-28 10:43:35 51°32.624 2°51.641 241.8 13.2 240.1 30.5
2002-11-28 10:44:35 51°32.513 2°51.334 241.8 13.4 240.1 30.7
2002-11-28 10:45:35 51°32.402 2°51.027 241.8 13.3 240.2 30.5
2002-11-28 10:46:35 51°32.291 2°50.718 242 13.4 240.3 29.2
2002-11-28 10:47:35 51°32.18 2°50.409 241.3 13.3 239.9 30.1
2002-11-28 10:48:35 51°32.068 2°50.102 241.5 13.4 239.9 30.4
2002-11-28 10:49:35 51°31.956 2°49.795 241.7 13.3 240.4 31.9
2002-11-28 10:50:35 51°31.83 2°49.507 227.3 13.1 225.4 28.4
2002-11-28 10:51:35 51°31.655 2°49.294 217.3 13.2 215 29.1
2002-11-28 10:52:35 51°31.478 2°49.086 218.5 13.3 216.2 26
2002-11-28 10:53:35 51°31.302 2°48.875 218.7 13.3 216.7 29.7
2002-11-28 10:54:35 51°31.125 2°48.662 218.7 13.2 217.1 27.1
2002-11-28 10:55:35 51°30.942 2°48.464 215 13.3 212.7 28.3
2002-11-28 10:56:35 51°30.757 2°48.272 215.5 13.2 213.5 26.6
2002-11-28 10:57:35 51°30.573 2°48.075 215.5 13.3 213.8 25
2002-11-28 10:58:35 51°30.387 2°47.88 215.5 13.3 213.6 25.8
2002-11-28 10:59:35 51°30.203 2°47.683 215.7 13.3 213.6 24.3
2002-11-28 11:00:35 51°30.019 2°47.485 216 13.3 214 22.6
2002-11-28 11:01:35 51°29.835 2°47.288 215.7 13.3 214.1 23.9
2002-11-28 11:02:35 51°29.666 2°47.064 234.3 13.3 232.1 24.3
2002-11-28 11:03:35 51°29.622 2°46.72 273.8 13.6 271.6 23.8
2002-11-28 11:04:35 51°29.631 2°46.357 271.5 13.7 269.8 24.6
2002-11-28 11:05:35 51°29.625 2°45.994 269.3 13.6 267.7 24.4
2002-11-28 11:06:35 51°29.615 2°45.631 269.7 13.7 268.1 27
2002-11-28 11:07:35 51°29.609 2°45.267 269.8 13.7 268.4 24.8
2002-11-28 11:08:35 51°29.602 2°44.904 268.8 13.6 268 29.1
2002-11-28 11:09:35 51°29.593 2°44.541 269.3 13.7 268.1 29.9
2002-11-28 11:10:35 51°29.584 2°44.175 268.8 13.6 267.7 30.9
2002-11-28 11:11:35 51°29.577 2°43.811 270.7 13.6 269.5 30.5
2002-11-28 11:12:35 51°29.58 2°43.446 272.7 13.8 271.6 30
2002-11-28 11:13:35 51°29.592 2°43.08 275.7 13.8 273.8 31.2
2002-11-28 11:14:35 51°29.607 2°42.714 274.3 13.8 273.5 33.7
2002-11-28 11:15:35 51°29.621 2°42.349 276 13.8 274.5 30.6
2002-11-28 11:16:35 51°29.635 2°41.983 275 13.8 273.8 31.7
2002-11-28 11:17:35 51°29.649 2°41.618 274.2 13.7 273 31.3
2002-11-28 11:18:35 51°29.662 2°41.253 274.5 13.7 272.9 31.7
2002-11-28 11:19:35 51°29.676 2°40.886 275.3 13.8 273.6 30.2
2002-11-28 11:20:35 51°29.688 2°40.518 274.7 13.9 272.7 34.3
2002-11-28 11:21:35 51°29.701 2°40.15 275.3 13.9 274.1 33.9
2002-11-28 11:22:35 51°29.715 2°39.782 275.2 13.8 273.2 34.7
2002-11-28 11:23:35 51°29.725 2°39.414 275 13.9 272.5 35.6
2002-11-28 11:24:35 51°29.736 2°39.047 274.8 13.8 272.9 36.9
2002-11-28 11:25:35 51°29.745 2°38.679 273.8 13.9 271.9 35.4
2002-11-28 11:26:35 51°29.755 2°38.31 275.3 13.9 273.1 36.2
2002-11-28 11:27:35 51°29.73 2°37.951 253 13.4 251 35.8
2002-11-28 11:28:35 51°29.644 2°37.617 247.5 13.6 246.5 34.4
2002-11-28 11:29:35 51°29.485 2°37.378 217.3 13.4 215.5 30.8
2002-11-28 11:30:35 51°29.304 2°37.169 219 13.4 216.7 27
2002-11-28 11:31:35 51°29.127 2°36.948 220.3 13.4 218.1 30
2002-11-28 11:32:35 51°28.951 2°36.727 220.5 13.5 218.3 26.7
2002-11-28 11:33:35 51°28.775 2°36.504 220.7 13.5 217.9 26.2
2002-11-28 11:34:35 51°28.599 2°36.282 220.5 13.5 218.3 25.6
2002-11-28 11:35:35 51°28.424 2°36.058 221.3 13.6 218.4 27.9
2002-11-28 11:36:35 51°28.248 2°35.834 221.2 13.5 218.5 25.9
2002-11-28 11:37:35 51°28.072 2°35.611 220.8 13.6 218.8 28.4
2002-11-28 11:38:35 51°27.894 2°35.387 219.7 13.6 217.9 29.7
2002-11-28 11:39:35 51°27.717 2°35.161 220.3 13.6 218.7 28.9
2002-11-28 11:40:35 51°27.54 2°34.933 220.8 13.6 218.8 29.3
2002-11-28 11:41:35 51°27.361 2°34.707 220.5 13.7 218.5 25.5
2002-11-28 11:42:35 51°27.182 2°34.48 220.8 13.7 218.6 30.3
2002-11-28 11:43:35 51°27.001 2°34.256 219.7 13.7 217.7 31.3
2002-11-28 11:44:35 51°26.82 2°34.035 219.7 13.7 216.8 31.5
2002-11-28 11:45:35 51°26.638 2°33.814 219.3 13.8 216.8 31.6
2002-11-28 11:46:35 51°26.455 2°33.593 219.7 13.8 217 32.2
2002-11-28 11:47:35 51°26.273 2°33.371 219.3 13.7 216.8 32
2002-11-28 11:48:35 51°26.087 2°33.157 213 13.9 210.7 32.3
2002-11-28 11:49:35 51°25.879 2°32.991 208.5 14 206.6 31.4
2002-11-28 11:50:35 51°25.662 2°32.869 196 13.8 193.4 29.3
2002-11-28 11:51:35 51°25.438 2°32.839 181.5 13.6 178.8 26.2
2002-11-28 11:52:35 51°25.21 2°32.839 186 13.7 183.5 23.2
2002-11-28 11:53:35 51°24.986 2°32.857 169.7 13.4 167.9 17.7
2002-11-28 11:54:35 51°24.766 2°32.938 170 13.6 166.6 19.2
2002-11-28 11:55:35 51°24.544 2°33.015 171.2 13.7 168 22.3
2002-11-28 11:56:35 51°24.32 2°33.09 171 13.8 168.1 27
2002-11-28 11:57:35 51°24.097 2°33.164 170.8 13.7 168.5 29.1
2002-11-28 11:58:35 51°23.872 2°33.228 175.2 13.7 172.3 27.5
2002-11-28 11:59:35 51°23.644 2°33.222 189.5 13.9 187.2 30.1
2002-11-28 12:00:35 51°23.416 2°33.136 195.8 14.3 193.3 29.5
2002-11-28 12:01:35 51°23.192 2°33.028 200.7 14.1 198.9 29.9
2002-11-28 12:02:35 51°22.97 2°32.909 200 14.1 198.2 29.8
2002-11-28 12:03:35 51°22.746 2°32.813 192 14 189.7 29.6
2002-11-28 12:04:35 51°22.516 2°32.781 185.8 13.9 184.5 31
2002-11-28 12:05:35 51°22.285 2°32.752 186.7 14 184.4 29.3
2002-11-28 12:06:35 51°22.055 2°32.72 186.8 14.1 184.9 29.6
2002-11-28 12:07:35 51°21.826 2°32.689 187 14 184.9 24.4
2002-11-28 12:08:35 51°21.597 2°32.657 186.5 13.7 184.9 20.3
2002-11-28 12:09:35 51°21.366 2°32.627 186.7 14.1 184.9 20.9
2002-11-28 12:10:35 51°21.136 2°32.595 186.5 14 184.4 25.1
2002-11-28 12:11:35 51°20.904 2°32.567 184.7 14 183.1 28.8
2002-11-28 12:12:35 51°20.671 2°32.548 184.5 14 182.9 29.1
2002-11-28 12:13:35 51°20.439 2°32.529 184.2 13.9 182.8 29.3
2002-11-28 12:14:35 51°20.207 2°32.519 182.5 14.1 181.3 29.2
2002-11-28 12:15:35 51°19.972 2°32.511 182.7 14.1 181.2 28.8
2002-11-28 12:16:35 51°19.74 2°32.501 183.2 13.9 181.6 29.6
2002-11-28 12:17:35 51°19.509 2°32.492 182.8 13.9 181.8 28.9
2002-11-28 12:18:35 51°19.277 2°32.482 182.8 13.9 181.8 29.2
2002-11-28 12:19:35 51°19.044 2°32.47 182.8 14 181.7 29.1
2002-11-28 12:20:35 51°18.812 2°32.459 182.7 14 181.7 28.3
2002-11-28 12:21:35 51°18.585 2°32.389 199.2 14 197.7 27.7
2002-11-28 12:22:35 51°18.365 2°32.265 201.8 14 200 26.3
2002-11-28 12:23:35 51°18.153 2°32.106 209.5 14.1 208 25.9
2002-11-28 12:24:35 51°17.952 2°31.915 212.7 14 211.1 25.6
2002-11-28 12:25:35 51°17.754 2°31.72 213.3 14.1 212 25.7
2002-11-28 12:26:35 51°17.556 2°31.52 215 14.1 213.2 26.2
2002-11-28 12:27:35 51°17.362 2°31.312 214.8 14 213.5 25.6
2002-11-28 12:28:35 51°17.168 2°31.105 214.8 14 213.7 26.1
2002-11-28 12:29:35 51°16.972 2°30.899 215.2 14.2 213.8 26.6
2002-11-28 12:30:35 51°16.776 2°30.693 215 14.2 213.4 24.3
2002-11-28 12:31:35 51°16.58 2°30.485 215 14.1 214.1 26.7
2002-11-28 12:32:35 51°16.383 2°30.277 214.2 14.1 213.6 27.3
2002-11-28 12:33:35 51°16.185 2°30.069 214.8 14.3 213.4 27.4
2002-11-28 12:34:35 51°15.99 2°29.861 215.2 14.1 214.3 27.5
2002-11-28 12:35:35 51°15.792 2°29.652 214.5 14.3 213.2 27.6
2002-11-28 12:36:35 51°15.594 2°29.445 214.5 14.3 213 27.4
2002-11-28 12:37:35 51°15.396 2°29.236 214.8 14.3 213.7 27.9
2002-11-28 12:38:35 51°15.197 2°29.028 214.7 14.4 213.4 27.7
2002-11-28 12:39:35 51°14.997 2°28.819 214.5 14.3 213.2 27
2002-11-28 12:40:35 51°14.797 2°28.61 215 14.4 213.3 27.1
2002-11-28 12:41:35 51°14.598 2°28.401 214.7 14.4 213.4 26.7
2002-11-28 12:42:35 51°14.397 2°28.192 215 14.5 213.3 26.6
2002-11-28 12:43:35 51°14.197 2°27.981 214.5 14.4 213.2 25.9
2002-11-28 12:44:35 51°13.997 2°27.773 214.8 14.4 213 25.4
2002-11-28 12:45:35 51°13.797 2°27.564 214.8 14.4 213.4 24.7
2002-11-28 12:46:35 51°13.597 2°27.357 214.8 14.4 213 25
2002-11-28 12:47:35 51°13.396 2°27.148 214.5 14.4 213 25
2002-11-28 12:48:35 51°13.194 2°26.941 214 14.5 212.3 24.1
2002-11-28 12:49:35 51°12.993 2°26.73 216.5 14.4 214.6 23.9
2002-11-28 12:50:35 51°12.795 2°26.512 216.7 14.5 214.6 23.5
2002-11-28 12:51:35 51°12.596 2°26.292 216.5 14.5 214.7 24.2
2002-11-28 12:52:35 51°12.396 2°26.073 216.8 14.6 214.7 24.5
2002-11-28 12:53:35 51°12.198 2°25.851 216.7 14.7 214.8 24.1
2002-11-28 12:54:35 51°11.994 2°25.643 210 14.5 208.5 23.9
2002-11-28 12:55:35 51°11.773 2°25.49 201.2 14.5 200.3 23.2
2002-11-28 12:56:35 51°11.546 2°25.366 200 14.5 198.9 23.1
2002-11-28 12:57:35 51°11.319 2°25.243 200.2 14.4 198.9 22
2002-11-28 12:58:35 51°11.088 2°25.157 187.8 14.1 187.7 20
2002-11-28 12:59:35 51°10.86 2°25.181 166.5 13.5 167.3 11.7
2002-11-28 13:00:35 51°10.674 2°25.365 137 13.3 136.8 15
2002-11-28 13:01:35 51°10.593 2°25.671 94.2 12.8 93.3 16.6
2002-11-28 13:02:35 51°10.648 2°26.002 77.2 13.2 72.6 16.8
2002-11-28 13:03:35 51°10.713 2°26.332 76.8 13.2 72.4 17.5
2002-11-28 13:04:35 51°10.778 2°26.663 76.8 13.2 72.1 18.1
2002-11-28 13:05:35 51°10.842 2°26.997 78.2 13.2 73.7 18.7
2002-11-28 13:06:35 51°10.91 2°27.333 77.8 13.2 73.1 18.4
2002-11-28 13:07:35 51°10.975 2°27.664 78.3 13 72.8 18.2
2002-11-28 13:08:35 51°11.051 2°27.987 73.3 13.1 67.2 18.2
2002-11-28 13:09:35 51°11.138 2°28.308 72 13.4 66.7 20
2002-11-28 13:10:35 51°11.242 2°28.615 63.3 13.1 57.6 20.7
2002-11-28 13:11:35 51°11.369 2°28.901 59.7 13.2 53.5 21.7
2002-11-28 13:12:35 51°11.498 2°29.181 56.8 13.2 50.7 23.2
2002-11-28 13:13:35 51°11.634 2°29.451 56.5 13.1 51.1 21.6
2002-11-28 13:14:35 51°11.772 2°29.721 56.7 13.2 50.6 22.2
2002-11-28 13:15:35 51°11.91 2°29.989 55.3 13.1 49.8 21
2002-11-28 13:16:35 51°12.049 2°30.258 56.5 13.2 50.8 20.8
2002-11-28 13:17:35 51°12.189 2°30.529 56.5 13.4 50.6 21.2
2002-11-28 13:18:35 51°12.326 2°30.802 57 13.1 51.5 21.6
2002-11-28 13:19:35 51°12.463 2°31.072 57.3 13.2 51.1 21.2
2002-11-28 13:20:35 51°12.602 2°31.344 55.7 13.3 50 21.5
2002-11-28 13:21:35 51°12.741 2°31.614 56.5 13.1 50.2 21.9
2002-11-28 13:22:35 51°12.878 2°31.884 56.8 13.2 50.4 22.6
2002-11-28 13:23:35 51°13.001 2°32.169 73 13 68.3 22.4
2002-11-28 13:24:35 51°13.059 2°32.505 80 13.3 75.3 22.8
2002-11-28 13:25:35 51°13.107 2°32.85 83.5 13.4 79.2 22.9
2002-11-28 13:26:35 51°13.149 2°33.199 83.7 13.4 79.3 22.1
2002-11-28 13:27:35 51°13.192 2°33.547 83.3 13.5 79 18.6
2002-11-28 13:28:35 51°13.235 2°33.895 83 13.5 78.5 13.8
2002-11-28 13:29:35 51°13.275 2°34.242 84.2 13.3 79.1 12.4
2002-11-28 13:30:35 51°13.348 2°34.574 72 13.4 66.4 13.8
2002-11-28 13:31:35 51°13.438 2°34.896 72.8 13.2 67 14.5
2002-11-28 13:32:35 51°13.525 2°35.217 72.2 13.2 66.3 15
2002-11-28 13:33:35 51°13.614 2°35.536 73.3 13.1 67.2 15.3
2002-11-28 13:34:35 51°13.701 2°35.859 73.2 13.2 67 17
2002-11-28 13:35:35 51°13.786 2°36.18 74.5 13.2 68.5 16.5
2002-11-28 13:36:35 51°13.871 2°36.503 73.8 13.1 67.1 17.3
2002-11-28 13:37:35 51°13.955 2°36.828 73.7 13.3 67.5 17.7
2002-11-28 13:38:35 51°14.036 2°37.154 73.8 13.2 68.1 17.6
2002-11-28 13:39:35 51°14.099 2°37.488 84.7 13.4 79.8 18.2
2002-11-28 13:40:35 51°14.132 2°37.835 85.7 13.3 81.3 18.7
2002-11-28 13:41:35 51°14.165 2°38.182 86 13.2 81.5 17.3
2002-11-28 13:42:35 51°14.181 2°38.534 95.7 13.4 91.9 15.5
2002-11-28 13:43:35 51°14.107 2°38.868 123.7 13.4 121.2 9.6
2002-11-28 13:44:35 51°13.92 2°39.066 166.5 13.9 164.3 13.3
2002-11-28 13:45:35 51°13.691 2°39.032 199.7 14.2 196.6 13.4
2002-11-28 13:46:35 51°13.477 2°38.866 215 14.4 211.3 12.9
2002-11-28 13:47:35 51°13.284 2°38.642 222.7 14.4 218.8 13.6
2002-11-28 13:48:35 51°13.096 2°38.405 222.7 14.4 218.5 13.3
2002-11-28 13:49:35 51°12.908 2°38.167 223 14.4 218.6 12.8
2002-11-28 13:50:35 51°12.721 2°37.931 222.5 14.3 218.6 11.9
2002-11-28 13:51:35 51°12.533 2°37.694 222.3 14.4 218 11.6
2002-11-28 13:52:35 51°12.346 2°37.458 222.2 14.3 218.2 10.7
2002-11-28 13:53:35 51°12.158 2°37.22 223 14.4 218.5 10.4
2002-11-28 13:54:35 51°11.97 2°36.986 220.2 14.3 216.6 9.9
2002-11-28 13:55:35 51°11.774 2°36.772 217 14.4 213.3 10.2
2002-11-28 13:56:35 51°11.575 2°36.559 217.5 14.4 214 10.2
2002-11-28 13:57:35 51°11.377 2°36.348 217.5 14.4 214 10
2002-11-28 13:58:35 51°11.179 2°36.134 217.7 14.4 214.2 10
2002-11-28 13:59:35 51°10.981 2°35.921 217.3 14.3 214 9.6
2002-11-28 14:00:35 51°10.774 2°35.741 198.8 14.2 196.5 9.6
2002-11-28 14:01:35 51°10.543 2°35.655 196 14.3 193 9.4
2002-11-28 14:02:35 51°10.307 2°35.651 177.8 14.2 177 10.4
2002-11-28 14:03:35 51°10.08 2°35.739 164.3 14.3 162.8 13.8
2002-11-28 14:04:35 51°9.86 2°35.87 161 13.9 160 17.5
2002-11-28 14:05:35 51°9.643 2°35.994 161.7 13.9 160.8 16.5
2002-11-28 14:06:35 51°9.481 2°36.071 172.7 7.3 171.1 16
2002-11-28 14:07:35 51°9.395 2°36.056 197.2 4.2 195.6 15.9
2002-11-28 14:08:35 51°9.358 2°36.028 214.2 0.7 220.7 16
2002-11-28 14:09:35 51°9.352 2°36.02 218.2 0.4 225.8 -999
2002-11-28 14:10:35 51°9.349 2°36.012 215.7 0.3 246.7 15.5
2002-11-28 14:11:35 51°9.348 2°36.005 214.2 0.2 271.9 15.6
2002-11-28 14:12:34 51°9.35 2°36.001 209.2 0.2 322.2 16
2002-11-28 14:13:35 51°9.262 2°35.97 176.3 9.3 177.9 15.5
2002-11-28 14:14:35 51°9.122 2°36.096 146.2 8.4 145.9 14.9
2002-11-28 14:15:35 51°9.015 2°36.108 196.8 5.5 195.7 13
2002-11-28 14:16:35 51°8.951 2°36.055 213.3 3.9 212.3 11.9
2002-11-28 14:17:35 51°8.905 2°36.003 220.3 3 219.7 11.3
2002-11-28 14:18:35 51°8.88 2°35.949 248.2 2.2 244.5 11.1
2002-11-28 14:19:35 51°8.871 2°35.898 266.5 1.9 262.1 11.2
2002-11-28 14:20:35 51°8.871 2°35.846 272.5 2 269.9 11.8
2002-11-28 14:21:35 51°8.868 2°35.793 264.2 2 262.3 12
2002-11-28 14:22:35 51°8.863 2°35.741 260 1.9 259.9 12.6
2002-11-28 14:23:35 51°8.855 2°35.691 254.7 1.9 255.4 12.5
2002-11-28 14:24:35 51°8.847 2°35.602 275.2 5.6 270 13.2
2002-11-28 14:25:35 51°8.941 2°35.434 348.5 10.4 339.7 15.6
2002-11-28 14:26:35 51°9.079 2°35.565 70.2 11.1 65.9 15.7
2002-11-28 14:27:35 51°9.171 2°35.871 65.2 13.4 61.2 15.6
2002-11-28 14:28:35 51°9.263 2°36.195 70 13.4 66.4 15.5
2002-11-28 14:29:35 51°9.353 2°36.52 72.2 13.4 68.5 15.2
2002-11-28 14:30:35 51°9.437 2°36.853 71.3 13.5 68 15.5
2002-11-28 14:31:35 51°9.52 2°37.186 71.8 13.5 68.6 14.9
2002-11-28 14:32:35 51°9.602 2°37.52 74 13.5 70.4 14.4
2002-11-28 14:33:35 51°9.678 2°37.859 74 13.6 70.2 13.9
2002-11-28 14:34:35 51°9.754 2°38.198 73.7 13.6 70.1 13.5
2002-11-28 14:35:34 51°9.83 2°38.528 73.7 13.5 70.4 13.2
2002-11-28 14:36:35 51°9.908 2°38.873 73.3 13.7 70 12.4
2002-11-28 14:37:35 51°9.984 2°39.212 73.8 13.6 70.2 12.4
2002-11-28 14:38:35 51°10.06 2°39.554 74.2 13.6 70.8 11.7
2002-11-28 14:39:35 51°10.134 2°39.895 74.3 13.6 71.1 11.6
2002-11-28 14:40:35 51°10.204 2°40.239 76.7 13.6 73.3 11.7
2002-11-28 14:41:35 51°10.272 2°40.582 74.7 13.6 71.7 11.5
2002-11-28 14:42:35 51°10.34 2°40.926 75.2 13.6 72 10.9
2002-11-28 14:43:35 51°10.408 2°41.27 75.5 13.6 72.3 11.4
2002-11-28 14:44:35 51°10.486 2°41.61 72 13.8 68.4 11.4
2002-11-28 14:45:35 51°10.566 2°41.949 73 13.7 69.6 11.3
2002-11-28 14:46:35 51°10.647 2°42.288 72.3 13.7 69 11.4
2002-11-28 14:47:36 51°10.73 2°42.635 73 13.8 69.3 11.3
2002-11-28 14:48:35 51°10.81 2°42.972 73.2 13.7 69.5 11.5
2002-11-28 14:49:35 51°10.893 2°43.311 73 13.7 69 11.4
2002-11-28 14:50:35 51°10.975 2°43.65 74.2 13.6 69.9 11.4
2002-11-28 14:51:35 51°11.057 2°43.988 73.2 13.7 69.3 11.5
2002-11-28 14:52:35 51°11.14 2°44.327 72.5 13.7 68.4 11.6
2002-11-28 14:53:35 51°11.227 2°44.662 71.5 13.6 66.9 11.7
2002-11-28 14:54:35 51°11.32 2°44.994 70.8 13.6 66.1 11.8
2002-11-28 14:55:35 51°11.414 2°45.329 70.3 13.7 65.6 11.9
2002-11-28 14:56:35 51°11.508 2°45.66 71 13.6 66.1 12.1
2002-11-28 14:57:35 51°11.599 2°45.989 71 13.6 65.8 12.2
2002-11-28 14:58:35 51°11.7 2°46.315 69 13.7 63.6 12.5
2002-11-28 14:59:35 51°11.802 2°46.64 69 13.7 64.2 12.4
2002-11-28 15:00:35 51°11.904 2°46.964 68.8 13.7 63.7 12.4
2002-11-28 15:01:35 51°12.006 2°47.29 68.8 13.6 63.5 12.4
2002-11-28 15:02:35 51°12.108 2°47.612 66.8 13.7 61.4 12.3
2002-11-28 15:03:35 51°12.218 2°47.93 66 13.8 60.6 12.5
2002-11-28 15:04:36 51°12.33 2°48.254 66.5 13.7 60.9 12.4
2002-11-28 15:05:35 51°12.44 2°48.565 65.8 13.8 60.2 12.3
2002-11-28 15:06:35 51°12.552 2°48.883 67.8 13.7 62 12.1
2002-11-28 15:07:35 51°12.663 2°49.202 66.3 13.8 60.6 11.8
2002-11-28 15:08:35 51°12.776 2°49.521 66.3 13.8 60.5 11.9
2002-11-28 15:09:36 51°12.89 2°49.846 66.2 13.8 60 11.7
2002-11-28 15:10:35 51°13.001 2°50.16 67.7 13.9 61.3 11.7
2002-11-28 15:11:35 51°13.114 2°50.478 66.5 13.9 60.3 11.2
2002-11-28 15:12:35 51°13.228 2°50.797 65.8 13.7 59.5 11.5
2002-11-28 15:13:35 51°13.349 2°51.108 64 13.9 57.5 11.5
2002-11-28 15:14:35 51°13.47 2°51.422 64.7 14 58 11.4
2002-11-28 15:15:35 51°13.592 2°51.733 64 13.9 57.9 11.3
2002-11-28 15:16:35 51°13.715 2°52.045 64.7 13.9 58.2 10.9
2002-11-28 15:17:35 51°13.836 2°52.359 64.7 13.9 58.3 11.2
2002-11-28 15:18:35 51°13.97 2°52.644 59.7 12.2 52.9 11.3
2002-11-28 15:19:35 51°14.028 2°52.834 74.5 6 67.7 11.4
2002-11-28 15:20:35 51°14.066 2°52.943 59 4.1 53.6 11.2
2002-11-28 15:21:35 51°14.109 2°53.012 52 3.9 43.9 11.3
2002-11-28 15:22:35 51°14.14 2°53.074 63.8 2.9 53.9 11.1
2002-11-28 15:23:35 51°14.165 2°53.132 66 2.7 55.9 11.1
2002-11-28 15:24:35 51°14.191 2°53.198 67 3.5 58.6 10.8
2002-11-28 15:25:35 51°14.224 2°53.297 72.5 4.6 64.8 10.8
2002-11-28 15:26:35 51°14.274 2°53.472 71.5 10.7 65 10.5
2002-11-28 15:27:35 51°14.372 2°53.756 66.7 12.6 60.1 10.5
2002-11-28 15:28:35 51°14.454 2°54.067 77.7 12.8 70.6 10.2
2002-11-28 15:29:35 51°14.505 2°54.396 86.3 12.8 80 10.7
2002-11-28 15:30:35 51°14.5 2°54.723 115.7 12.2 108.7 11.4
2002-11-28 15:31:34 51°14.4 2°54.994 133.8 12.1 127.6 10.8
2002-11-28 15:32:34 51°14.29 2°55.215 134.7 8.5 129.6 10.8
2002-11-28 15:33:32 51°14.217 2°55.337 144.3 5.6 138.3 10.6
2002-11-28 15:34:39 51°14.142 2°55.421 154 4.6 147.2 -999
2002-11-28 15:35:39 51°14.076 2°55.479 159.5 4.5 154.5 -999
2002-11-28 15:36:39 51°14.008 2°55.531 160 4.6 154.6 -999
2002-11-28 15:37:39 51°13.927 2°55.581 165.8 5.6 160.1 -999